createdAt,value
2022-08-21T00:01:45.665Z,73.75
2022-08-21T00:04:20.058Z,73.16
2022-08-21T00:06:50.131Z,71.96
2022-08-21T00:09:18.370Z,72.16
2022-08-21T00:11:45.547Z,72.52
2022-08-21T00:14:13.559Z,74.07
2022-08-21T00:16:41.013Z,73.06
2022-08-21T00:19:08.359Z,72.59
2022-08-21T00:21:35.651Z,71.63
2022-08-21T00:24:03.153Z,72.90
2022-08-21T00:26:30.470Z,73.67
2022-08-21T00:28:58.420Z,74.61
2022-08-21T00:31:26.554Z,73.52
2022-08-21T00:33:59.345Z,74.45
2022-08-21T00:36:29.019Z,74.63
2022-08-21T00:38:56.494Z,76.18
2022-08-21T00:41:38.339Z,74.21
2022-08-21T00:44:07.258Z,73.99
2022-08-21T00:46:34.431Z,75.09
2022-08-21T00:49:01.599Z,72.69
2022-08-21T00:51:30.308Z,74.13
2022-08-21T00:53:58.983Z,73.15
2022-08-21T00:56:26.668Z,74.79
2022-08-21T00:58:54.953Z,76.79
2022-08-21T01:01:22.449Z,75.19
2022-08-21T01:03:49.991Z,75.68
2022-08-21T01:06:17.658Z,74.40
2022-08-21T01:08:46.848Z,74.67
2022-08-21T01:11:15.590Z,73.88
2022-08-21T01:13:46.895Z,74.97
2022-08-21T01:16:15.040Z,75.54
2022-08-21T01:18:42.481Z,74.01
2022-08-21T01:21:14.201Z,74.26
2022-08-21T01:23:42.392Z,74.05
2022-08-21T01:26:10.293Z,74.89
2022-08-21T01:28:57.815Z,74.01
2022-08-21T01:31:26.523Z,75.06
2022-08-21T01:33:54.317Z,74.79
2022-08-21T01:36:21.505Z,73.86
2022-08-21T01:38:48.961Z,74.81
2022-08-21T01:41:16.491Z,74.67
2022-08-21T01:43:43.889Z,75.05
2022-08-21T01:46:11.421Z,74.91
2022-08-21T01:48:38.645Z,74.90
2022-08-21T01:51:06.041Z,73.30
2022-08-21T01:53:36.531Z,75.05
2022-08-21T01:56:04.586Z,76.79
2022-08-21T01:58:40.432Z,74.29
2022-08-21T02:01:07.802Z,74.47
2022-08-21T02:03:36.292Z,74.81
2022-08-21T02:06:04.963Z,75.74
2022-08-21T02:08:32.190Z,75.61
2022-08-21T02:10:59.736Z,77.53
2022-08-21T02:13:27.220Z,75.64
2022-08-21T02:15:54.407Z,77.32
2022-08-21T02:18:21.848Z,76.29
2022-08-21T02:20:49.446Z,77.27
2022-08-21T02:23:27.044Z,77.17
2022-08-21T02:25:58.713Z,74.57
2022-08-21T02:28:27.619Z,76.83
2022-08-21T02:30:55.285Z,75.94
2022-08-21T02:33:22.794Z,75.80
2022-08-21T02:35:50.870Z,74.83
2022-08-21T02:38:19.334Z,78.41
2022-08-21T02:40:48.345Z,77.65
2022-08-21T02:43:19.094Z,78.25
2022-08-21T02:45:46.597Z,76.95
2022-08-21T02:48:15.977Z,76.76
2022-08-21T02:50:45.291Z,74.49
2022-08-21T02:53:16.309Z,76.23
2022-08-21T02:55:45.016Z,79.73
2022-08-21T02:58:12.196Z,77.71
2022-08-21T03:00:39.612Z,77.85
2022-08-21T03:03:07.331Z,79.27
2022-08-21T03:05:35.315Z,79.50
2022-08-21T03:08:02.924Z,78.64
2022-08-21T03:10:31.970Z,76.59
2022-08-21T03:12:59.302Z,75.99
2022-08-21T03:15:27.389Z,78.21
2022-08-21T03:17:55.554Z,77.77
2022-08-21T03:20:24.784Z,77.09
2022-08-21T03:22:53.183Z,77.70
2022-08-21T03:25:37.483Z,76.16
2022-08-21T03:28:08.683Z,76.70
2022-08-21T03:30:41.618Z,76.53
2022-08-21T03:33:08.804Z,74.18
2022-08-21T03:35:39.703Z,78.58
2022-08-21T03:38:07.214Z,76.62
2022-08-21T03:40:34.381Z,75.65
2022-08-21T03:43:01.566Z,76.41
2022-08-21T03:45:30.086Z,76.02
2022-08-21T03:47:59.690Z,76.30
2022-08-21T03:50:27.734Z,76.46
2022-08-21T03:52:55.613Z,75.21
2022-08-21T03:55:22.909Z,76.60
2022-08-21T03:57:50.069Z,78.06
2022-08-21T04:00:17.966Z,75.93
2022-08-21T04:02:45.415Z,77.35
2022-08-21T04:05:13.215Z,78.95
2022-08-21T04:07:40.457Z,78.78
2022-08-21T04:10:08.211Z,77.84
2022-08-21T04:12:35.385Z,79.56
2022-08-21T04:15:03.031Z,80.05
2022-08-21T04:17:30.535Z,78.35
2022-08-21T04:19:57.702Z,80.25
2022-08-21T04:22:24.877Z,77.22
2022-08-21T04:24:52.312Z,76.22
2022-08-21T04:27:19.469Z,76.70
2022-08-21T04:29:46.661Z,75.56
2022-08-21T04:32:14.067Z,75.75
2022-08-21T04:34:41.276Z,75.62
2022-08-21T04:37:08.473Z,75.32
2022-08-21T04:39:35.941Z,75.39
2022-08-21T04:42:03.122Z,75.38
2022-08-21T04:44:30.386Z,75.25
2022-08-21T04:46:57.802Z,75.51
2022-08-21T04:49:24.988Z,76.69
2022-08-21T04:51:52.197Z,73.52
2022-08-21T04:54:20.594Z,75.68
2022-08-21T04:56:47.846Z,77.91
2022-08-21T04:59:28.192Z,76.82
2022-08-21T05:01:57.573Z,78.88
2022-08-21T05:04:26.230Z,77.01
2022-08-21T05:06:53.943Z,76.11
2022-08-21T05:09:21.449Z,76.61
2022-08-21T05:11:49.806Z,77.91
2022-08-21T05:14:17.073Z,75.59
2022-08-21T05:16:45.015Z,75.23
2022-08-21T05:19:12.409Z,76.51
2022-08-21T05:21:41.752Z,75.35
2022-08-21T05:24:09.289Z,73.94
2022-08-21T05:26:45.466Z,73.88
2022-08-21T05:29:14.742Z,73.59
2022-08-21T05:31:42.172Z,73.57
2022-08-21T05:34:09.317Z,73.76
2022-08-21T05:36:38.056Z,74.69
2022-08-21T05:39:05.233Z,75.21
2022-08-21T05:41:34.202Z,74.66
2022-08-21T05:44:01.978Z,74.14
2022-08-21T05:46:29.299Z,72.98
2022-08-21T05:48:56.517Z,74.95
2022-08-21T05:51:24.328Z,75.55
2022-08-21T05:53:51.482Z,74.79
2022-08-21T05:56:18.746Z,74.03
2022-08-21T05:58:46.216Z,72.76
2022-08-21T06:01:13.460Z,71.74
2022-08-21T06:03:41.319Z,70.83
2022-08-21T06:06:08.563Z,71.75
2022-08-21T06:08:35.763Z,71.06
2022-08-21T06:11:04.125Z,70.59
2022-08-21T06:13:31.306Z,73.43
2022-08-21T06:16:15.773Z,72.84
2022-08-21T06:18:44.072Z,72.93
2022-08-21T06:21:12.499Z,72.55
2022-08-21T06:23:39.737Z,71.69
2022-08-21T06:26:07.448Z,73.40
2022-08-21T06:28:34.896Z,72.29
2022-08-21T06:31:02.312Z,72.85
2022-08-21T06:33:32.704Z,73.53
2022-08-21T06:36:00.919Z,74.14
2022-08-21T06:38:28.119Z,71.41
2022-08-21T06:40:56.394Z,69.70
2022-08-21T06:43:39.219Z,73.02
2022-08-21T06:46:08.748Z,72.09
2022-08-21T06:48:36.095Z,70.81
2022-08-21T06:51:03.601Z,68.69
2022-08-21T06:53:31.153Z,69.01
2022-08-21T06:55:58.314Z,70.83
2022-08-21T06:58:25.505Z,70.24
2022-08-21T07:00:54.021Z,70.74
2022-08-21T07:03:28.340Z,71.05
2022-08-21T07:05:56.058Z,69.02
2022-08-21T07:08:23.262Z,70.20
2022-08-21T07:10:50.441Z,69.40
2022-08-21T07:13:17.910Z,70.18
2022-08-21T07:15:45.779Z,70.29
2022-08-21T07:18:14.105Z,71.77
2022-08-21T07:20:41.600Z,69.95
2022-08-21T07:23:10.322Z,69.65
2022-08-21T07:25:37.496Z,69.64
2022-08-21T07:28:04.955Z,67.62
2022-08-21T07:30:32.354Z,69.23
2022-08-21T07:32:59.798Z,69.58
2022-08-21T07:35:30.033Z,71.60
2022-08-21T07:37:57.590Z,70.87
2022-08-21T07:40:25.276Z,71.98
2022-08-21T07:42:52.836Z,71.49
2022-08-21T07:45:21.342Z,71.52
2022-08-21T07:47:49.852Z,70.81
2022-08-21T07:50:19.913Z,69.86
2022-08-21T07:52:48.274Z,68.13
2022-08-21T07:55:17.010Z,67.07
2022-08-21T07:57:45.352Z,70.58
2022-08-21T08:00:14.202Z,69.96
2022-08-21T08:02:41.618Z,67.95
2022-08-21T08:05:10.262Z,67.39
2022-08-21T08:07:37.724Z,67.11
2022-08-21T08:10:05.633Z,66.51
2022-08-21T08:12:33.040Z,66.09
2022-08-21T08:15:00.762Z,66.72
2022-08-21T08:17:28.130Z,67.09
2022-08-21T08:19:56.366Z,65.62
2022-08-21T08:22:26.795Z,66.18
2022-08-21T08:24:54.121Z,63.94
2022-08-21T08:27:21.783Z,64.35
2022-08-21T08:29:48.940Z,62.48
2022-08-21T08:32:16.177Z,64.40
2022-08-21T08:34:44.223Z,63.08
2022-08-21T08:37:11.987Z,64.01
2022-08-21T08:39:39.754Z,66.07
2022-08-21T08:42:32.988Z,65.78
2022-08-21T08:45:08.067Z,67.16
2022-08-21T08:47:36.490Z,65.07
2022-08-21T08:50:06.124Z,64.38
2022-08-21T08:52:37.384Z,63.68
2022-08-21T08:55:04.945Z,61.92
2022-08-21T08:57:32.209Z,62.28
2022-08-21T09:00:00.554Z,64.35
2022-08-21T09:02:30.230Z,64.76
2022-08-21T09:04:57.578Z,64.05
2022-08-21T09:07:24.808Z,64.08
2022-08-21T09:10:01.074Z,61.46
2022-08-21T09:12:37.011Z,65.26
2022-08-21T09:15:10.853Z,65.84
2022-08-21T09:17:40.909Z,64.50
2022-08-21T09:20:08.318Z,63.54
2022-08-21T09:22:47.662Z,63.00
2022-08-21T09:25:25.931Z,61.98
2022-08-21T09:27:53.096Z,63.67
2022-08-21T09:30:21.021Z,62.26
2022-08-21T09:32:48.178Z,60.98
2022-08-21T09:35:17.775Z,63.10
2022-08-21T09:37:55.587Z,63.38
2022-08-21T09:40:32.006Z,62.97
2022-08-21T09:43:03.851Z,63.43
2022-08-21T09:45:34.077Z,62.73
2022-08-21T09:48:15.491Z,63.05
2022-08-21T09:50:43.265Z,62.31
2022-08-21T09:53:43.384Z,62.18
2022-08-21T09:56:39.756Z,62.05
2022-08-21T09:59:14.477Z,62.89
2022-08-21T10:01:46.927Z,62.24
2022-08-21T10:04:16.019Z,61.27
2022-08-21T10:06:43.175Z,62.76
2022-08-21T10:09:13.663Z,62.32
2022-08-21T10:11:47.224Z,63.49
2022-08-21T10:14:17.316Z,62.41
2022-08-21T10:17:03.913Z,60.96
2022-08-21T10:19:46.523Z,59.70
2022-08-21T10:22:34.180Z,57.29
2022-08-21T10:25:04.483Z,60.04
2022-08-21T10:27:35.821Z,59.82
2022-08-21T10:30:16.522Z,60.57
2022-08-21T10:33:07.189Z,58.77
2022-08-21T10:35:36.519Z,58.62
2022-08-21T10:38:46.221Z,56.39
2022-08-21T10:41:15.918Z,56.82
2022-08-21T10:43:52.344Z,56.61
2022-08-21T10:46:38.771Z,55.96
2022-08-21T10:49:21.721Z,56.29
2022-08-21T10:51:54.867Z,57.31
2022-08-21T10:54:40.962Z,57.74
2022-08-21T10:57:13.252Z,59.38
2022-08-21T10:59:49.240Z,58.70
2022-08-21T11:02:19.191Z,58.05
2022-08-21T11:04:51.869Z,56.38
2022-08-21T11:07:23.972Z,57.32
2022-08-21T11:09:52.239Z,55.80
2022-08-21T11:12:22.124Z,55.46
2022-08-21T11:15:04.220Z,54.47
2022-08-21T11:17:35.481Z,56.18
2022-08-21T11:20:11.490Z,56.22
2022-08-21T11:23:03.049Z,57.38
2022-08-21T11:25:36.975Z,56.35
2022-08-21T11:28:36.797Z,55.81
2022-08-21T11:31:04.211Z,54.69
2022-08-21T11:33:49.487Z,57.35
2022-08-21T11:36:21.318Z,55.48
2022-08-21T11:38:51.892Z,56.26
2022-08-21T11:41:22.344Z,58.72
2022-08-21T11:43:51.705Z,60.01
2022-08-21T11:46:27.919Z,57.97
2022-08-21T11:49:04.365Z,59.38
2022-08-21T11:51:34.199Z,59.18
2022-08-21T11:54:07.209Z,59.77
2022-08-21T11:56:36.542Z,59.62
2022-08-21T11:59:05.955Z,57.19
2022-08-21T12:01:34.968Z,60.77
2022-08-21T12:04:04.419Z,58.39
2022-08-21T12:06:34.617Z,60.93
2022-08-21T12:09:03.788Z,60.27
2022-08-21T12:11:31.306Z,59.44
2022-08-21T12:14:13.076Z,59.60
2022-08-21T12:16:41.575Z,60.71
2022-08-21T12:19:13.299Z,60.98
2022-08-21T12:21:54.425Z,59.94
2022-08-21T12:24:33.465Z,58.95
2022-08-21T12:27:02.847Z,61.24
2022-08-21T12:29:31.032Z,61.19
2022-08-21T12:31:58.178Z,59.81
2022-08-21T12:34:44.587Z,60.35
2022-08-21T12:37:31.225Z,59.10
2022-08-21T12:39:59.335Z,61.34
2022-08-21T12:42:35.223Z,62.15
2022-08-21T12:45:10.908Z,62.62
2022-08-21T12:47:45.201Z,60.23
2022-08-21T12:50:24.545Z,59.77
2022-08-21T12:53:00.979Z,61.01
2022-08-21T12:55:30.918Z,59.66
2022-08-21T12:57:58.098Z,61.42
2022-08-21T13:00:27.533Z,60.92
2022-08-21T13:02:55.603Z,60.39
2022-08-21T13:05:29.393Z,59.87
2022-08-21T13:07:57.725Z,59.51
2022-08-21T13:10:27.015Z,62.58
2022-08-21T13:12:57.888Z,61.56
2022-08-21T13:15:33.308Z,63.04
2022-08-21T13:18:03.525Z,64.03
2022-08-21T13:20:39.001Z,62.43
2022-08-21T13:23:19.857Z,63.27
2022-08-21T13:25:47.287Z,65.49
2022-08-21T13:28:15.900Z,65.27
2022-08-21T13:30:44.592Z,63.89
2022-08-21T13:33:13.373Z,62.25
2022-08-21T13:35:48.262Z,62.46
2022-08-21T13:38:15.998Z,64.94
2022-08-21T13:40:48.372Z,65.71
2022-08-21T13:43:19.955Z,65.13
2022-08-21T13:45:50.028Z,64.67
2022-08-21T13:48:17.461Z,64.42
2022-08-21T13:50:44.661Z,64.59
2022-08-21T13:53:23.093Z,64.60
2022-08-21T13:55:50.843Z,64.56
2022-08-21T13:58:31.367Z,64.71
2022-08-21T14:00:59.344Z,65.99
2022-08-21T14:03:32.818Z,66.23
2022-08-21T14:06:00.451Z,66.17
2022-08-21T14:08:30.237Z,67.07
2022-08-21T14:10:57.767Z,67.16
2022-08-21T14:13:28.414Z,67.26
2022-08-21T14:15:58.014Z,67.69
2022-08-21T14:18:26.927Z,68.56
2022-08-21T14:21:05.208Z,70.92
2022-08-21T14:23:32.762Z,67.34
2022-08-21T14:26:04.166Z,69.99
2022-08-21T14:28:33.217Z,69.68
2022-08-21T14:31:15.099Z,69.02
2022-08-21T14:33:42.386Z,70.30
2022-08-21T14:36:09.857Z,69.26
2022-08-21T14:38:38.031Z,69.36
2022-08-21T14:41:16.919Z,70.03
2022-08-21T14:43:44.980Z,69.16
2022-08-21T14:46:13.000Z,69.84
2022-08-21T14:48:40.165Z,69.41
2022-08-21T14:51:07.585Z,70.65
2022-08-21T14:53:34.769Z,70.68
2022-08-21T14:56:07.978Z,71.71
2022-08-21T14:58:36.531Z,69.67
2022-08-21T15:01:05.088Z,71.91
2022-08-21T15:03:33.417Z,70.40
2022-08-21T15:06:00.849Z,72.72
2022-08-21T15:08:28.027Z,71.00
2022-08-21T15:11:11.124Z,70.66
2022-08-21T15:13:39.920Z,72.97
2022-08-21T15:16:07.154Z,72.00
2022-08-21T15:18:34.377Z,71.84
2022-08-21T15:21:01.807Z,74.21
2022-08-21T15:23:28.960Z,74.59
2022-08-21T15:25:58.428Z,72.00
2022-08-21T15:28:27.239Z,71.48
2022-08-21T15:31:00.375Z,72.17
2022-08-21T15:33:27.900Z,71.60
2022-08-21T15:35:55.060Z,72.46
2022-08-21T15:38:22.238Z,70.68
2022-08-21T15:40:51.997Z,70.04
2022-08-21T15:43:22.820Z,70.83
2022-08-21T15:46:00.892Z,71.47
2022-08-21T15:48:28.543Z,71.20
2022-08-21T15:50:55.737Z,72.00
2022-08-21T15:53:23.283Z,72.96
2022-08-21T15:55:50.437Z,72.67
2022-08-21T15:58:17.870Z,75.00
2022-08-21T16:00:45.695Z,74.73
2022-08-21T16:03:15.964Z,73.99
2022-08-21T16:05:43.797Z,74.37
2022-08-21T16:08:11.853Z,75.74
2022-08-21T16:10:39.462Z,72.17
2022-08-21T16:13:07.977Z,71.98
2022-08-21T16:15:35.125Z,71.94
2022-08-21T16:18:02.576Z,71.86
2022-08-21T16:20:29.922Z,71.58
2022-08-21T16:22:57.731Z,73.41
2022-08-21T16:28:12.993Z,73.31
2022-08-21T16:30:41.494Z,75.11
2022-08-21T16:33:08.719Z,74.72
2022-08-21T16:35:35.898Z,73.46
2022-08-21T16:38:03.491Z,75.20
2022-08-21T16:40:30.705Z,73.64
2022-08-21T16:42:58.080Z,73.65
2022-08-21T16:45:27.855Z,72.44
2022-08-21T16:47:58.344Z,72.54
2022-08-21T16:50:25.819Z,72.63
2022-08-21T16:52:53.142Z,73.27
2022-08-21T16:55:20.327Z,73.68
2022-08-21T16:57:47.758Z,75.86
2022-08-21T17:00:15.752Z,74.96
2022-08-21T17:02:45.083Z,74.11
2022-08-21T17:05:14.186Z,75.71
2022-08-21T17:07:42.485Z,75.96
2022-08-21T17:10:10.865Z,74.85
2022-08-21T17:12:38.414Z,75.26
2022-08-21T17:15:07.579Z,77.60
2022-08-21T17:17:34.976Z,74.82
2022-08-21T17:20:02.414Z,76.08
2022-08-21T17:22:29.590Z,76.46
2022-08-21T17:24:56.826Z,75.59
2022-08-21T17:27:26.815Z,75.34
2022-08-21T17:29:54.678Z,75.82
2022-08-21T17:32:22.107Z,75.90
2022-08-21T17:34:49.558Z,75.41
2022-08-21T17:37:16.737Z,76.38
2022-08-21T17:39:44.023Z,77.42
2022-08-21T17:42:11.980Z,75.68
2022-08-21T17:44:40.449Z,74.37
2022-08-21T17:47:07.812Z,74.88
2022-08-21T17:49:35.314Z,76.01
2022-08-21T17:52:02.613Z,74.41
2022-08-21T17:54:29.780Z,75.00
2022-08-21T17:56:57.229Z,74.66
2022-08-21T17:59:24.432Z,74.03
2022-08-21T18:01:52.296Z,75.89
2022-08-21T18:04:21.774Z,75.35
2022-08-21T18:06:48.984Z,75.63
2022-08-21T18:09:16.147Z,76.98
2022-08-21T18:11:43.871Z,75.92
2022-08-21T18:14:11.110Z,75.56
2022-08-21T18:16:38.442Z,75.38
2022-08-21T18:19:09.544Z,74.51
2022-08-21T18:21:36.719Z,75.05
2022-08-21T18:24:04.139Z,75.73
2022-08-21T18:26:34.733Z,76.48
2022-08-21T18:29:02.304Z,76.32
2022-08-21T18:31:30.517Z,78.29
2022-08-21T18:34:01.510Z,75.30
2022-08-21T18:36:29.527Z,75.87
2022-08-21T18:39:13.546Z,74.81
2022-08-21T18:41:46.354Z,75.58
2022-08-21T18:44:14.377Z,79.86
2022-08-21T18:46:42.111Z,83.89
2022-08-21T18:49:10.927Z,79.25
2022-08-21T18:51:45.134Z,75.85
2022-08-21T18:54:13.206Z,75.90
2022-08-21T18:56:42.557Z,78.36
2022-08-21T18:59:11.951Z,77.74
2022-08-21T19:01:43.660Z,76.74
2022-08-21T19:04:41.132Z,75.79
2022-08-21T19:07:06.004Z,77.16
2022-08-21T19:09:37.748Z,77.33
2022-08-21T19:12:14.480Z,77.60
2022-08-21T19:14:45.656Z,78.19
2022-08-21T19:17:13.907Z,78.87
2022-08-21T19:19:42.926Z,78.21
2022-08-21T19:22:11.215Z,77.63
2022-08-21T19:24:40.879Z,76.95
2022-08-21T19:27:17.706Z,76.42
2022-08-21T19:29:45.769Z,79.18
2022-08-21T19:32:15.273Z,77.87
2022-08-21T19:34:46.879Z,77.18
2022-08-21T19:37:16.608Z,79.74
2022-08-21T19:39:49.984Z,79.88
2022-08-21T19:42:21.708Z,82.46
2022-08-21T19:44:51.925Z,79.64
2022-08-21T19:47:29.301Z,79.29
2022-08-21T19:49:58.513Z,80.22
2022-08-21T19:52:26.499Z,81.32
2022-08-21T19:54:54.104Z,80.76
2022-08-21T19:57:21.660Z,77.82
2022-08-21T19:59:49.811Z,77.83
2022-08-21T20:02:20.277Z,80.26
2022-08-21T20:04:54.010Z,77.45
2022-08-21T20:07:26.452Z,78.51
2022-08-21T20:09:56.501Z,76.87
2022-08-21T20:12:25.634Z,78.24
2022-08-21T20:14:54.568Z,75.66
2022-08-21T20:17:21.982Z,78.92
2022-08-21T20:19:54.413Z,78.05
2022-08-21T20:22:24.472Z,78.30
2022-08-21T20:24:53.791Z,77.57
2022-08-21T20:27:24.338Z,78.42
2022-08-21T20:29:51.658Z,77.63
2022-08-21T20:32:19.010Z,78.96
2022-08-21T20:34:52.185Z,78.61
2022-08-21T20:37:37.583Z,77.74
2022-08-21T20:40:10.869Z,78.05
2022-08-21T20:42:39.140Z,77.27
2022-08-21T20:45:08.401Z,77.58
2022-08-21T20:47:36.077Z,78.65
2022-08-21T20:50:09.150Z,77.98
2022-08-21T20:52:40.583Z,78.34
2022-08-21T20:55:10.111Z,78.18
2022-08-21T20:57:43.549Z,78.61
2022-08-21T21:00:14.588Z,79.45
2022-08-21T21:02:44.977Z,78.76
2022-08-21T21:05:22.751Z,78.13
2022-08-21T21:08:05.852Z,78.04
2022-08-21T21:10:54.370Z,77.45
2022-08-21T21:13:24.551Z,81.07
2022-08-21T21:15:53.619Z,80.91
2022-08-21T21:18:26.090Z,81.76
2022-08-21T21:21:08.465Z,79.86
2022-08-21T21:23:44.504Z,81.31
2022-08-21T21:26:14.492Z,80.08
2022-08-21T21:28:47.200Z,78.94
2022-08-21T21:31:14.671Z,80.55
2022-08-21T21:33:42.766Z,79.50
2022-08-21T21:36:10.427Z,78.93
2022-08-21T21:38:51.795Z,77.65
2022-08-21T21:41:25.158Z,77.28
2022-08-21T21:43:52.746Z,78.36
2022-08-21T21:46:24.667Z,78.63
2022-08-21T21:49:14.946Z,77.69
2022-08-21T21:51:42.385Z,79.69
2022-08-21T21:54:09.702Z,80.26
2022-08-21T21:56:40.404Z,79.67
2022-08-21T21:59:29.694Z,77.87
2022-08-21T22:01:57.100Z,79.90
2022-08-21T22:04:28.543Z,77.25
2022-08-21T22:07:18.389Z,77.80
2022-08-21T22:09:50.495Z,79.29
2022-08-21T22:12:32.869Z,79.14
2022-08-21T22:15:00.359Z,79.17
2022-08-21T22:17:32.250Z,79.50
2022-08-21T22:20:00.920Z,78.72
2022-08-21T22:22:28.997Z,78.70
2022-08-21T22:25:05.867Z,76.58
2022-08-21T22:27:35.310Z,76.87
2022-08-21T22:30:04.149Z,77.69
2022-08-21T22:32:40.198Z,77.35
2022-08-21T22:35:21.142Z,79.05
2022-08-21T22:37:49.729Z,76.90
2022-08-21T22:40:35.991Z,76.04
2022-08-21T22:43:07.221Z,78.16
2022-08-21T22:45:51.493Z,78.57
2022-08-21T22:48:22.649Z,77.79
2022-08-21T22:51:20.133Z,77.87
2022-08-21T22:53:47.298Z,77.32
2022-08-21T22:56:26.965Z,78.70
2022-08-21T22:58:57.157Z,80.49
2022-08-21T23:01:24.617Z,78.21
2022-08-21T23:03:57.689Z,78.76
2022-08-21T23:06:33.080Z,78.44
2022-08-21T23:09:00.548Z,77.68
2022-08-21T23:11:38.006Z,77.24
2022-08-21T23:14:05.489Z,78.68
2022-08-21T23:16:52.598Z,76.90
2022-08-21T23:19:23.378Z,78.01
2022-08-21T23:21:59.900Z,79.18
2022-08-21T23:24:33.656Z,77.38
2022-08-21T23:27:07.900Z,78.16
2022-08-21T23:29:36.313Z,78.41
2022-08-21T23:32:25.112Z,79.77
2022-08-21T23:35:08.539Z,78.89
2022-08-21T23:37:51.441Z,79.26
2022-08-21T23:40:22.266Z,79.27
2022-08-21T23:43:03.272Z,78.56
2022-08-21T23:45:39.141Z,79.94
2022-08-21T23:48:29.402Z,77.35
2022-08-21T23:51:09.050Z,78.68
2022-08-21T23:53:55.910Z,78.24
2022-08-21T23:56:23.021Z,77.70
2022-08-21T23:59:03.483Z,77.64
